Terminal Aerodrome Forecast
Issued by NWS Charleston, WV

Current Version | Previous Version | Text Only | Print | Product List | Glossary On
Versions: 1 2 3 4 5 6 7 8 9 10 11 12 13 14 15 16 17 18 19 20 21 22 23 24
000
FTUS41 KRLX 301522 AAA
TAFPKB
TAF AMD
KPKB 301522Z 3015/3112 00000KT P6SM SCT040 BKN200
     FM310500 00000KT 5SM BR SCT040
     FM310600 00000KT 6SM BR BKN250=

USA.gov is the U.S. government's official web portal to all federal, state and local government web resources and services.